Burnwood, New York
Current Conditions -  °F | °C
As of 3:15 AM on Monday 24 Nov 2014 (Local Time) from KMSV Reporting Station
Overcast Overcast  
Wind Chill:   Ceiling: 200
Heat Index:   Visibility: 2mi
Dew Point:   Wind: 8mph
Humidity: 100%   Direction: 90°E
Pressure: 29.76"   Gusts: NA
Location:  41.9811°N, 75.0952°W
Report Text: KMSV 240815Z AUTO 09007KT 2SM OVC002 06/06 A2976 RMK AO1
Loading
Personal Weather Stations






























Interactive Weather Map New forecast layout! Learn more

10-Day Weather Forecast

Advertisements
Track Severe Weather on mobile